Home > Products > Valid Products > TAF

000
FTUS46 KSTO 231100
TAFRBL
TAF
KRBL 231139Z 2312/2412 33006KT P6SM SCT100
     FM231900 17009KT P6SM SCT100 SCT250=



000
FTUS46 KSTO 231100
TAFRDD
TAF
KRDD 231139Z 2312/2412 33004KT P6SM SCT100
     FM231900 18009KT P6SM SCT100 SCT250=



000
FTUS46 KSTO 231100
TAFSMF
TAF
KSMF 231139Z 2312/2412 27008KT P6SM SCT200
     FM231400 30008KT P6SM SCT200
     FM240200 20006KT P6SM BKN200=



000
FTUS46 KSTO 231100
TAFMHR
TAF
KMHR 231139Z 2312/2412 15005KT P6SM SCT200
     FM231800 30007KT P6SM SCT200
     FM240000 24006KT P6SM BKN200
     FM240400 16005KT P6SM BKN200=



000
FTUS46 KSTO 231100
TAFSAC
TAF
KSAC 231139Z 2312/2412 VRB05KT P6SM SCT200
     FM231800 32008KT P6SM SCT200
     FM240200 21006KT P6SM BKN200=



000
FTUS46 KSTO 231100
TAFSCK
TAF
KSCK 231139Z 2312/2412 28009KT P6SM SCT200
     FM231900 30013G19KT P6SM BKN200
     FM240200 28010KT P6SM BKN200=



000
FTUS46 KSTO 230500
TAFMHR
TAF
KMHR 230520Z 2306/2406 15005KT P6SM SCT200
     FM231800 30007KT P6SM SCT200
     FM240200 24008KT P6SM BKN150=



000
FTUS46 KSTO 230500
TAFSMF
TAF
KSMF 230520Z 2306/2406 27008KT P6SM SCT200
     FM231400 30008KT P6SM SCT200
     FM240200 20008KT P6SM BKN150=



000
FTUS46 KSTO 230500
TAFRBL
TAF
KRBL 230520Z 2306/2406 33006KT P6SM SCT100
     FM232100 16009KT P6SM SCT100=



000
FTUS46 KSTO 230500
TAFRDD
TAF
KRDD 230520Z 2306/2406 VRB05KT P6SM SCT100
     FM232100 18009KT P6SM SCT100=



000
FTUS46 KSTO 230500
TAFSAC
TAF
KSAC 230520Z 2306/2406 VRB05KT P6SM SCT200
     FM231800 32008KT P6SM SCT200
     FM240200 23009KT P6SM BKN150=



000
FTUS46 KSTO 230500
TAFSCK
TAF
KSCK 230520Z 2306/2406 27010G17KT P6SM SCT200
     FM231200 30009KT P6SM SCT200
     FM232100 30012G19KT P6SM BKN200=



000
FTUS46 KSTO 222300
TAFSMF
TAF
KSMF 222325Z 2300/2324 20008KT P6SM BKN100
     FM230300 VRB04KT P6SM SCT100=



000
FTUS46 KSTO 222300
TAFRDD
TAF
KRDD 222325Z 2300/2324 VRB05KT P6SM SCT050 BKN100=



000
FTUS46 KSTO 222300
TAFMHR
TAF
KMHR 222325Z 2300/2324 20006KT P6SM BKN100
     FM230300 VRB04KT P6SM SCT100=



000
FTUS46 KSTO 222300
TAFRBL
TAF
KRBL 222325Z 2300/2324 30012KT P6SM SCT050 BKN100
     FM230300 32006KT P6SM SCT050 BKN100=



000
FTUS46 KSTO 222300
TAFSAC
TAF
KSAC 222325Z 2300/2324 18008KT P6SM BKN100
     FM230300 VRB04KT P6SM SCT100=



000
FTUS46 KSTO 222300
TAFSCK
TAF
KSCK 222325Z 2300/2324 29012G20KT P6SM FEW050
     FM230400 27010KT P6SM SCT100=



000
FTUS46 KSTO 221700
TAFRBL
TAF
KRBL 221734Z 2218/2318 33013G21KT P6SM SCT080
     FM230300 32006KT P6SM SCT250=



000
FTUS46 KSTO 221700
TAFSAC
TAF
KSAC 221734Z 2218/2318 30007KT P6SM FEW080
     FM230300 VRB04KT P6SM SKC=



000
FTUS46 KSTO 221700
TAFSMF
TAF
KSMF 221734Z 2218/2318 31010KT P6SM FEW080
     FM230300 VRB04KT P6SM SKC=



000
FTUS46 KSTO 221700
TAFMHR
TAF
KMHR 221734Z 2218/2318 28006KT P6SM SCT080
     FM230300 VRB04KT P6SM SKC=



000
FTUS46 KSTO 221700
TAFRDD
TAF
KRDD 221734Z 2218/2318 30007KT P6SM SCT080
     FM230300 VRB04KT P6SM SCT250=



000
FTUS46 KSTO 221700
TAFSCK
TAF
KSCK 221734Z 2218/2318 29016G24KT P6SM FEW080
     FM230300 26012KT P6SM SKC
     FM230600 27007KT P6SM SKC=



000
FTUS46 KSTO 221600 AAA
TAFSAC
TAF AMD
KSAC 221653Z 2217/2312 30007KT P6SM SCT080
     FM230300 VRB04KT P6SM SKC=



000
FTUS46 KSTO 221600 AAA
TAFRBL
TAF AMD
KRBL 221653Z 2217/2312 33013KT P6SM SCT100
     FM230300 32006KT P6SM SCT250=



000
FTUS46 KSTO 221600 AAA
TAFSCK
TAF AMD
KSCK 221653Z 2217/2312 29018G27KT P6SM FEW080
     FM230300 26012KT P6SM SKC
     FM230600 27007KT P6SM SKC=



000
FTUS46 KSTO 221600 AAA
TAFSMF
TAF AMD
KSMF 221653Z 2217/2312 31010KT P6SM SCT080
     FM230300 VRB04KT P6SM SKC=



000
FTUS46 KSTO 221600 AAA
TAFRDD
TAF AMD
KRDD 221653Z 2217/2312 30007KT P6SM SCT100
     FM230300 VRB04KT P6SM SCT250=



000
FTUS46 KSTO 221600 AAA
TAFMHR
TAF AMD
KMHR 221653Z 2217/2312 28006KT P6SM SCT080
     FM230300 VRB04KT P6SM SKC=



000
FTUS46 KSTO 221100 RRA
TAFMHR
TAF
KMHR 221150Z 2212/2312 18008KT P6SM SCT030 BKN120
     FM221400 18012KT P6SM SCT050
     FM221600 25013G19KT P6SM VCSH BKN050
     FM230200 16007KT P6SM SKC=



000
FTUS46 KSTO 221100 RRA
TAFSAC
TAF
KSAC 221150Z 2212/2312 21008KT P6SM SCT015 BKN035
     FM221400 21012KT P6SM SCT040
     FM221600 26015G22KT P6SM VCSH BKN050
     FM230200 20010KT P6SM SKC=



000
FTUS46 KSTO 221100 RRA
TAFRDD
TAF
KRDD 221150Z 2212/2312 18005KT P6SM SCT070 BKN100
     FM221800 20008KT P6SM VCSH SCT050 BKN100
     FM222200 29004KT P6SM BKN100=



000
FTUS46 KSTO 221100 RRA
TAFRBL
TAF
KRBL 221150Z 2212/2312 34008KT P6SM SCT070 BKN100
     FM221900 21009KT P6SM VCSH BKN050
     FM230300 32006KT P6SM SCT250=



000
FTUS46 KSTO 221100 RRA
TAFSCK
TAF
KSCK 221150Z 2212/2312 26012KT P6SM BKN025 OVC035
     FM221600 29020G28KT P6SM SCT050
     FM230300 26013KT P6SM SKC=



000
FTUS46 KSTO 221100 RRA
TAFSMF
TAF
KSMF 221150Z 2212/2312 18010KT P6SM SCT040 OVC150
     FM221600 25013KT P6SM VCSH BKN050
     FM230000 20010KT P6SM SKC=



000
FTUS46 KSTO 220800 AAA
TAFRDD
TAF AMD
KRDD 220842Z 2209/2306 32005KT P6SM -SHRA BKN070 OVC090
     FM221300 20005KT P6SM VCSH BKN050
     FM221800 VRB05KT P6SM SCT250=



000
FTUS46 KSTO 220800 AAA
TAFMHR
TAF AMD
KMHR 220842Z 2209/2306 18008KT P6SM BKN120
     FM221000 18012KT P6SM -SHRA OVC050
     FM221600 25013G19KT P6SM SCT050
     FM230200 23010KT P6SM SKC=



000
FTUS46 KSTO 220800 AAA
TAFSAC
TAF AMD
KSAC 220842Z 2209/2306 20008KT P6SM BKN120
     FM221000 21012KT P6SM -SHRA OVC050
     FM221600 28014G20KT P6SM SCT050
     FM230200 23010KT P6SM SKC=



000
FTUS46 KSTO 220800 AAA
TAFSMF
TAF AMD
KSMF 220842Z 2209/2306 19008KT P6SM BKN060
     FM221200 17010KT P6SM -SHRA OVC050
     FM221700 29013KT P6SM SCT050
     FM230000 21008KT P6SM SKC=



000
FTUS46 KSTO 220800 AAA
TAFSCK
TAF AMD
KSCK 220842Z 2209/2306 27010KT P6SM SCT120 BKN200
     FM221200 28015KT P6SM VCSH OVC060
     FM221600 30020G28KT P6SM SCT050
     FM230300 26015KT P6SM SKC=



000
FTUS46 KSTO 220800 AAA
TAFRBL
TAF AMD
KRBL 220842Z 2209/2306 34008KT P6SM VCSH BKN100
     FM221000 28008KT P6SM -SHRA OVC050
     FM221300 21009KT P6SM VCSH BKN050
     FM221800 25007KT P6SM SCT250=



000
FTUS46 KSTO 220500
TAFSCK
TAF
KSCK 220520Z 2206/2306 28010KT P6SM SCT120 BKN200
     FM221200 27015KT P6SM VCSH OVC060
     FM221800 30018G26KT P6SM SCT050=



000
FTUS46 KSTO 220500
TAFRBL
TAF
KRBL 220520Z 2206/2306 16011KT P6SM VCSH BKN100
     FM220800 16012KT P6SM -SHRA OVC050
     FM221300 VRB05KT P6SM VCSH BKN050
     FM221800 VRB05KT P6SM SCT250=



000
FTUS46 KSTO 220500
TAFSMF
TAF
KSMF 220520Z 2206/2306 19010KT P6SM BKN120
     FM221000 17010KT P6SM -SHRA OVC050
     FM221600 29012KT P6SM SCT050=



000
FTUS46 KSTO 220500
TAFMHR
TAF
KMHR 220520Z 2206/2306 18008KT P6SM BKN120
     FM221000 18012KT P6SM -SHRA OVC050
     FM221600 29010KT P6SM SCT050=



000
FTUS46 KSTO 220500
TAFRDD
TAF
KRDD 220520Z 2206/2306 18006KT P6SM VCSH BKN100
     FM220800 19010KT P6SM -SHRA OVC050
     FM221300 VRB05KT P6SM VCSH BKN050
     FM221800 VRB05KT P6SM SCT250=



000
FTUS46 KSTO 220500
TAFSAC
TAF
KSAC 220520Z 2206/2306 20008KT P6SM BKN120
     FM221000 21012KT P6SM -SHRA OVC050
     FM221600 29011KT P6SM SCT050=



000
FTUS46 KSTO 212300
TAFRBL
TAF
KRBL 212328Z 2200/2224 16011KT P6SM VCSH BKN100
     FM220800 16012KT P6SM -SHRA OVC050
     FM221500 17010KT P6SM VCSH BKN050
     FM221900 16010KT P6SM SCT100=



000
FTUS46 KSTO 212300
TAFMHR
TAF
KMHR 212328Z 2200/2224 20008KT P6SM SCT120 BKN200
     FM220600 16008KT P6SM BKN120
     FM221000 18012KT P6SM -SHRA OVC050
     FM221900 27010KT P6SM BKN050=



000
FTUS46 KSTO 212300
TAFSMF
TAF
KSMF 212328Z 2200/2224 19011KT P6SM SCT120 BKN200
     FM220600 16010KT P6SM BKN120
     FM221000 17010KT P6SM -SHRA OVC050
     FM221900 20012KT P6SM BKN050=



000
FTUS46 KSTO 212300
TAFRDD
TAF
KRDD 212328Z 2200/2224 18008KT P6SM VCSH BKN100
     FM220800 19010KT P6SM -SHRA OVC050
     FM221500 18008KT P6SM VCSH BKN050
     FM221900 18008KT P6SM SCT100=



000
FTUS46 KSTO 212300
TAFSCK
TAF
KSCK 212328Z 2200/2224 29010KT P6SM SCT120 BKN200
     FM221500 29015KT P6SM VCSH OVC060
     FM221900 30018KT P6SM SCT050=



000
FTUS46 KSTO 212300
TAFSAC
TAF
KSAC 212328Z 2200/2224 20008KT P6SM SCT120 BKN200
     FM220600 18008KT P6SM BKN120
     FM221000 21012KT P6SM -SHRA OVC050
     FM221900 27011KT P6SM BKN050=



000
FTUS46 KSTO 212100 AAA
TAFMHR
TAF AMD
KMHR 212139Z 2122/2218 15008KT P6SM SCT120 BKN200
     FM221200 18012KT P6SM -RA OVC050=



000
FTUS46 KSTO 212100 AAA
TAFSMF
TAF AMD
KSMF 212138Z 2122/2218 19011KT P6SM SCT120 BKN200
     FM220600 16010KT P6SM BKN120
     FM221200 17014KT P6SM -SHRA OVC050=



000
FTUS46 KSTO 212100 AAA
TAFSAC
TAF AMD
KSAC 212138Z 2122/2218 20008KT P6SM SCT120 BKN200
     FM220500 18008KT P6SM BKN120
     FM221200 21012KT P6SM -RA OVC050=



000
FTUS46 KSTO 212100 AAA
TAFRDD
TAF AMD
KRDD 212137Z 2122/2218 19008KT P6SM SCT100 BKN200
     FM220800 19010KT P6SM -SHRA OVC050=



000
FTUS46 KSTO 212100 AAA
TAFRBL
TAF AMD
KRBL 212137Z 2122/2218 16011KT P6SM SCT100 BKN200
     FM220800 16012KT P6SM -SHRA OVC050=



000
FTUS46 KSTO 211700
TAFRBL
TAF
KRBL 211739Z 2118/2218 16006KT P6SM OVC250
     FM212100 16013G20KT P6SM SCT100 OVC200
     FM220800 16012KT P6SM -SHRA OVC050=



000
FTUS46 KSTO 211700
TAFRDD
TAF
KRDD 211739Z 2118/2218 19006KT P6SM OVC250
     FM212100 19011G18KT P6SM SCT100 OVC200
     FM220800 19010KT P6SM -SHRA OVC050=



000
FTUS46 KSTO 211700
TAFSAC
TAF
KSAC 211739Z 2118/2218 20008KT P6SM BKN250
     FM212100 20011G17KT P6SM SCT120 BKN200
     FM220500 18008KT P6SM BKN120
     FM221200 21012KT P6SM -RA OVC050=



000
FTUS46 KSTO 211700
TAFSMF
TAF
KSMF 211739Z 2118/2218 19008KT P6SM BKN250
     FM212100 19012G18KT P6SM SCT120 BKN200
     FM220600 16010KT P6SM BKN120
     FM221200 17014KT P6SM -SHRA OVC050=



000
FTUS46 KSTO 211700
TAFSCK
TAF
KSCK 211739Z 2118/2218 30005KT P6SM BKN250
     FM220000 28012KT P6SM SCT100 BKN200
     FM221500 29015G25KT P6SM VCSH OVC060=



000
FTUS46 KSTO 211700
TAFMHR
TAF
KMHR 211739Z 2118/2218 20008KT P6SM BKN250
     FM212100 20011G17KT P6SM SCT120 BKN200
     FM220500 15008KT P6SM BKN120
     FM221200 18012KT P6SM -RA OVC050=



000
FTUS46 KSTO 211100
TAFRDD
TAF
KRDD 211120Z 2112/2212 16005KT P6SM OVC200
     FM212200 18014G22KT P6SM OVC150
     FM220200 17008KT P6SM BKN100
     FM220700 18010KT P6SM -SHRA SCT030 OVC050=



000
FTUS46 KSTO 211100
TAFRBL
TAF
KRBL 211120Z 2112/2212 34004KT P6SM OVC250
     FM211700 16007KT P6SM OVC200
     FM212200 16014G22KT P6SM OVC120
     FM220700 17010KT P6SM -SHRA SCT030 OVC050=



000
FTUS46 KSTO 211100
TAFSCK
TAF
KSCK 211120Z 2112/2212 30005KT P6SM FEW250
     FM220000 28012KT P6SM SCT100 OVC200=



000
FTUS46 KSTO 211100
TAFMHR
TAF
KMHR 211120Z 2112/2212 VRB05KT P6SM FEW250
     FM212100 20010KT P6SM SCT100 OVC200
     FM220800 16006KT P6SM SCT050 OVC100=



000
FTUS46 KSTO 211100
TAFSAC
TAF
KSAC 211120Z 2112/2212 VRB05KT P6SM BKN250
     FM212100 20010G16KT P6SM SCT100 OVC200
     FM220800 18008KT P6SM SCT050 OVC100=



000
FTUS46 KSTO 211100
TAFSMF
TAF
KSMF 211120Z 2112/2212 16006KT P6SM BKN250
     FM212100 19011G18KT P6SM SCT100 OVC200
     FM220800 17008KT P6SM SCT050 OVC100=



000
FTUS46 KSTO 210500
TAFRBL
TAF
KRBL 210520Z 2106/2206 34005KT P6SM BKN250
     FM211700 16008KT P6SM OVC200
     FM212100 16019G32KT P6SM OVC150
     FM220200 16010G20KT P6SM BKN100=



000
FTUS46 KSTO 210500
TAFSCK
TAF
KSCK 210520Z 2106/2206 30005KT P6SM FEW250
     FM212200 28011KT P6SM BKN200=



000
FTUS46 KSTO 210500
TAFRDD
TAF
KRDD 210520Z 2106/2206 VRB05KT P6SM BKN250
     FM211700 18007KT P6SM OVC200
     FM212100 18019G32KT P6SM OVC150
     FM220200 18011KT P6SM VCSH BKN100=



000
FTUS46 KSTO 210500
TAFSMF
TAF
KSMF 210520Z 2106/2206 16006KT P6SM FEW250
     FM211900 19011G18KT P6SM OVC200=



000
FTUS46 KSTO 210500
TAFMHR
TAF
KMHR 210520Z 2106/2206 VRB05KT P6SM FEW250
     FM211900 20010KT P6SM OVC200=



000
FTUS46 KSTO 210500
TAFSAC
TAF
KSAC 210520Z 2106/2206 VRB05KT P6SM FEW250
     FM211900 20010G16KT P6SM OVC200=



000
FTUS46 KSTO 202300
TAFSAC
TAF
KSAC 202320Z 2100/2124 33008KT P6SM FEW250
     FM210200 VRB05KT P6SM FEW250
     FM211900 20010KT P6SM OVC200=



000
FTUS46 KSTO 202300
TAFSCK
TAF
KSCK 202320Z 2100/2124 31011KT P6SM FEW250
     FM210500 30005KT P6SM FEW250
     FM211800 28008KT P6SM OVC200=



000
FTUS46 KSTO 202300
TAFSMF
TAF
KSMF 202320Z 2100/2124 33009KT P6SM FEW250
     FM210300 VRB05KT P6SM FEW250
     FM211900 19011KT P6SM OVC200=



000
FTUS46 KSTO 202300
TAFRDD
TAF
KRDD 202320Z 2100/2124 VRB05KT P6SM BKN250
     FM211700 18007KT P6SM OVC200
     FM212200 18019G32KT P6SM OVC150=



000
FTUS46 KSTO 202300
TAFRBL
TAF
KRBL 202320Z 2100/2124 34005KT P6SM BKN250
     FM211700 16008KT P6SM OVC200
     FM212200 16019G32KT P6SM OVC150=



000
FTUS46 KSTO 202300
TAFMHR
TAF
KMHR 202320Z 2100/2124 31008KT P6SM FEW250
     FM210200 VRB05KT P6SM FEW250
     FM211900 20010KT P6SM OVC200=



000
FTUS46 KSTO 202100 AAA
TAFRDD
TAF AMD
KRDD 202128Z 2021/2118 33008KT P6SM SCT250
     FM202200 VRB05KT P6SM SCT250
     FM211700 18007KT P6SM OVC250=



000
FTUS46 KSTO 201700
TAFMHR
TAF
KMHR 201735Z 2018/2118 33007KT P6SM FEW250
     FM210200 VRB05KT P6SM FEW250
     FM211500 18006KT P6SM BKN250=



000
FTUS46 KSTO 201700
TAFRDD
TAF
KRDD 201735Z 2018/2118 35008G17KT P6SM SCT250
     FM202200 VRB05KT P6SM SCT250=



000
FTUS46 KSTO 201700
TAFSMF
TAF
KSMF 201735Z 2018/2118 33009KT P6SM FEW250
     FM210200 VRB05KT P6SM FEW250
     FM211600 18008KT P6SM OVC250=



000
FTUS46 KSTO 201700
TAFSAC
TAF
KSAC 201735Z 2018/2118 34008KT P6SM FEW250
     FM210100 VRB05KT P6SM FEW250
     FM211500 19006KT P6SM BKN250=



000
FTUS46 KSTO 201700
TAFRBL
TAF
KRBL 201735Z 2018/2118 36011KT P6SM SCT250
     FM202300 VRB06KT P6SM SCT250=



000
FTUS46 KSTO 201700
TAFSCK
TAF
KSCK 201735Z 2018/2118 32011KT P6SM SKC
     FM210300 30006KT P6SM SKC
     FM211700 26006KT P6SM SCT250=



    US Dept of Commerce
    National Oceanic and Atmospheric Administration
    National Weather Service
    1325 East West Highway
    Silver Spring, MD 20910
    Page Author: NWS Internet Services Team
Disclaimer
Information Quality
Credits
Glossary
Privacy Policy
Freedom of Information Act (FOIA)
About Us
Career Opportunities